Time;durP1;ratioP1;P1;durP2;ratioP2;P2;SDS_P1;SDS_P2;PMS_P1;PMS_P2;Temp;Humidity;BMP_temperature;BMP_pressure;BME280_temperature;BME280_humidity;BME280_pressure;Samples;Min_cycle;Max_cycle;Signal;HPM_P1;HPM_P2
2021/12/18 00:01:22;;;;;;;10.10;7.75;;;;;;;1.67;100.00;101219.16;5043931;28;20028;-69
2021/12/18 00:03:47;;;;;;;17.80;8.43;;;;;;;1.69;100.00;101213.84;5039983;28;20026;-71
2021/12/18 00:06:13;;;;;;;14.32;8.80;;;;;;;1.68;100.00;101219.97;5046374;28;20031;-70
2021/12/18 00:08:39;;;;;;;12.95;8.63;;;;;;;1.67;100.00;101226.16;5039125;28;20025;-69
2021/12/18 00:11:05;;;;;;;11.23;8.07;;;;;;;1.64;100.00;101229.81;5035657;28;20029;-66
2021/12/18 00:13:31;;;;;;;9.18;8.20;;;;;;;1.71;100.00;101225.03;5041043;28;20020;-68
2021/12/18 00:15:56;;;;;;;10.80;7.78;;;;;;;1.67;100.00;101228.78;5057259;28;20056;-68
2021/12/18 00:18:22;;;;;;;17.13;7.90;;;;;;;1.65;100.00;101233.28;5040630;28;20061;-70
2021/12/18 00:20:48;;;;;;;15.57;8.57;;;;;;;1.63;100.00;101235.16;5033219;28;20411;-68
2021/12/18 00:23:14;;;;;;;10.90;7.97;;;;;;;1.58;100.00;101240.69;5036244;28;20029;-68
2021/12/18 00:25:40;;;;;;;16.15;8.32;;;;;;;1.59;100.00;101237.13;5040841;28;20469;-68
2021/12/18 00:28:07;;;;;;;17.60;8.85;;;;;;;1.58;100.00;101234.59;5047334;28;20025;-70
2021/12/18 00:30:33;;;;;;;11.48;8.38;;;;;;;1.59;100.00;101246.75;5047655;28;20387;-68
2021/12/18 00:32:59;;;;;;;15.65;9.25;;;;;;;1.54;100.00;101239.22;5035670;28;20025;-69
2021/12/18 00:35:25;;;;;;;17.35;7.80;;;;;;;1.58;100.00;101242.44;5037984;28;20032;-68
2021/12/18 00:37:50;;;;;;;16.17;7.95;;;;;;;1.55;100.00;101245.28;5043640;28;20033;-68
2021/12/18 00:40:23;;;;;;;10.93;7.78;;;;;;;1.52;100.00;101245.47;5041240;28;20356;-69
2021/12/18 00:42:57;;;;;;;12.90;8.52;;;;;;;1.55;100.00;101245.28;5035685;28;20034;-68
2021/12/18 00:45:23;;;;;;;12.20;8.00;;;;;;;1.57;100.00;101249.47;5036239;28;20124;-69
2021/12/18 00:47:49;;;;;;;12.10;8.15;;;;;;;1.52;100.00;101245.47;5029651;28;20113;-69
2021/12/18 00:50:22;;;;;;;11.13;8.25;;;;;;;1.52;100.00;101246.28;5047159;28;20370;-70
2021/12/18 00:52:47;;;;;;;12.02;7.78;;;;;;;1.54;100.00;101246.19;5042463;28;20083;-66
2021/12/18 00:55:14;;;;;;;11.95;7.15;;;;;;;1.55;100.00;101253.97;5035373;28;20033;-66
2021/12/18 00:57:40;;;;;;;9.98;7.28;;;;;;;1.52;100.00;101256.75;5031610;28;20367;-68
2021/12/18 01:00:09;;;;;;;8.23;6.88;;;;;;;1.55;100.00;101253.13;5042102;28;20071;-66
2021/12/18 01:02:36;;;;;;;8.55;7.65;;;;;;;1.55;100.00;101253.97;5032618;28;20032;-70
2021/12/18 01:05:03;;;;;;;9.65;8.15;;;;;;;1.51;100.00;101252.47;5032116;28;20075;-69
2021/12/18 01:07:28;;;;;;;12.60;7.30;;;;;;;1.47;100.00;101250.13;5047981;28;20059;-68
2021/12/18 01:12:31;;;;;;;9.35;7.22;;;;;;;1.48;100.00;101257.91;5036882;28;20033;-69
2021/12/18 01:15:11;;;;;;;8.80;7.13;;;;;;;1.47;100.00;101265.81;5047446;28;20041;-68
2021/12/18 01:23:05;;;;;;;12.60;7.07;;;;;;;1.42;100.00;101263.53;5036460;28;20082;-69
2021/12/18 01:25:30;;;;;;;8.43;7.50;;;;;;;1.39;100.00;101261.91;5032686;28;20022;-68
2021/12/18 01:27:56;;;;;;;10.50;7.68;;;;;;;1.38;100.00;101259.41;5039035;28;20087;-68
2021/12/18 01:30:21;;;;;;;8.48;6.78;;;;;;;1.38;100.00;101265.47;5044455;28;20029;-67
2021/12/18 01:32:47;;;;;;;15.18;7.18;;;;;;;1.37;100.00;101271.66;5038905;28;20071;-66
2021/12/18 01:35:13;;;;;;;10.68;7.63;;;;;;;1.38;100.00;101275.09;5047139;28;20036;-67
2021/12/18 01:37:40;;;;;;;10.25;7.68;;;;;;;1.42;100.00;101275.75;5036807;28;20026;-68
2021/12/18 01:40:07;;;;;;;12.80;7.97;;;;;;;1.37;100.00;101276.03;5037768;28;20033;-69
2021/12/18 01:45:10;;;;;;;12.45;7.45;;;;;;;1.35;100.00;101281.38;5039698;28;20038;-66
2021/12/18 01:53:07;;;;;;;8.40;6.18;;;;;;;1.39;100.00;101276.78;5036777;28;20402;-69
2021/12/18 01:55:35;;;;;;;10.15;7.20;;;;;;;1.42;100.00;101281.00;5048042;28;20045;-68
2021/12/18 01:58:01;;;;;;;10.35;6.22;;;;;;;1.41;100.00;101279.31;5038793;28;20497;-67
2021/12/18 02:00:39;;;;;;;8.30;7.43;;;;;;;1.39;100.00;101280.22;5045573;28;20428;-69
2021/12/18 02:03:05;;;;;;;8.43;5.70;;;;;;;1.38;100.00;101283.78;5051766;28;20033;-68
2021/12/18 02:05:31;;;;;;;8.02;6.78;;;;;;;1.39;100.00;101288.06;5038673;28;20040;-68
2021/12/18 02:07:57;;;;;;;11.43;6.20;;;;;;;1.37;100.00;101289.09;5048640;28;20106;-69
2021/12/18 02:10:27;;;;;;;7.32;6.57;;;;;;;1.39;100.00;101277.59;5046262;28;20085;-70
2021/12/18 02:21:15;;;;;;;6.47;5.50;;;;;;;1.43;100.00;101286.09;5047046;28;20414;-69
2021/12/18 02:23:41;;;;;;;6.95;6.35;;;;;;;1.44;100.00;101300.03;5039855;28;20040;-67
2021/12/18 02:26:07;;;;;;;9.90;6.50;;;;;;;1.43;100.00;101299.19;5041315;28;20033;-68
2021/12/18 02:28:33;;;;;;;6.80;6.28;;;;;;;1.46;100.00;101300.75;5034887;28;20068;-68
2021/12/18 02:31:00;;;;;;;6.78;6.07;;;;;;;1.44;100.00;101297.41;5034578;28;20037;-69
2021/12/18 02:33:26;;;;;;;6.25;5.65;;;;;;;1.43;100.00;101300.97;5034033;28;20404;-69
2021/12/18 02:35:54;;;;;;;9.93;6.03;;;;;;;1.43;100.00;101298.34;5051625;28;20095;-70
2021/12/18 02:38:27;;;;;;;7.78;7.05;;;;;;;1.42;100.00;101301.91;5036514;28;20112;-69
2021/12/18 02:43:36;;;;;;;6.20;5.57;;;;;;;1.38;100.00;101302.06;5034798;28;20034;-68
2021/12/18 02:46:06;;;;;;;7.05;6.40;;;;;;;1.39;100.00;101308.13;5035720;28;20013;-68
2021/12/18 02:48:37;;;;;;;8.52;6.40;;;;;;;1.39;100.00;101314.22;5034349;28;20456;-68
2021/12/18 02:51:05;;;;;;;6.32;5.72;;;;;;;1.41;100.00;101315.91;5041751;28;20024;-69
2021/12/18 02:53:30;;;;;;;6.90;6.00;;;;;;;1.41;100.00;101319.38;5050586;28;20099;-68
2021/12/18 02:55:59;;;;;;;7.45;5.78;;;;;;;1.40;100.00;101317.69;5036032;28;20127;-70
2021/12/18 02:58:25;;;;;;;9.23;5.60;;;;;;;1.44;100.00;101321.78;5037962;28;20398;-69
2021/12/18 03:00:52;;;;;;;12.15;6.03;;;;;;;1.43;100.00;101325.31;5045119;28;20026;-68
2021/12/18 03:03:18;;;;;;;6.22;5.65;;;;;;;1.34;100.00;101321.53;5034089;28;20120;-69
2021/12/18 03:05:56;;;;;;;9.70;5.80;;;;;;;1.35;100.00;101331.03;5037491;28;20063;-69
2021/12/18 03:08:36;;;;;;;6.45;5.85;;;;;;;1.31;100.00;101332.16;5045865;28;20033;-68
2021/12/18 03:24:41;;;;;;;9.65;6.07;;;;;;;1.17;100.00;101352.22;5055048;28;20114;-69
2021/12/18 03:27:07;;;;;;;9.77;6.47;;;;;;;1.07;100.00;101352.78;5033905;28;20390;-68
2021/12/18 03:29:33;;;;;;;8.50;5.95;;;;;;;1.05;100.00;101353.84;5033108;28;20049;-67
2021/12/18 03:31:59;;;;;;;9.32;5.97;;;;;;;1.09;100.00;101360.53;5045098;28;20594;-68
2021/12/18 03:34:24;;;;;;;6.93;6.32;;;;;;;1.03;100.00;101366.16;5035226;28;20115;-70
2021/12/18 03:36:51;;;;;;;9.88;7.35;;;;;;;1.01;100.00;101363.63;5040307;28;20021;-70
2021/12/18 03:39:17;;;;;;;6.57;5.97;;;;;;;1.03;100.00;101364.38;5033558;28;20029;-67
2021/12/18 03:41:43;;;;;;;18.23;6.22;;;;;;;1.04;100.00;101365.22;5033431;28;20033;-67
2021/12/18 03:44:08;;;;;;;13.55;7.10;;;;;;;1.01;100.00;101366.22;5036629;28;20120;-66
2021/12/18 03:46:33;;;;;;;7.53;6.60;;;;;;;1.05;100.00;101372.13;5045520;28;20021;-69
2021/12/18 03:48:59;;;;;;;9.93;6.45;;;;;;;1.05;100.00;101374.75;5033127;28;20025;-68
2021/12/18 03:51:24;;;;;;;6.13;5.57;;;;;;;1.10;100.00;101376.16;5039130;28;20033;-68
2021/12/18 03:53:50;;;;;;;8.73;6.18;;;;;;;1.06;100.00;101373.81;5033795;28;20667;-69
2021/12/18 03:56:17;;;;;;;8.02;6.20;;;;;;;1.04;100.00;101376.50;5033225;28;20098;-68
2021/12/18 03:58:43;;;;;;;7.57;6.80;;;;;;;1.09;100.00;101386.66;5032861;28;20029;-68
2021/12/18 04:01:08;;;;;;;12.98;7.18;;;;;;;1.12;100.00;101378.66;5031203;28;20064;-67
2021/12/18 04:03:34;;;;;;;8.93;6.80;;;;;;;1.14;100.00;101382.00;5049075;28;20493;-69
2021/12/18 04:05:59;;;;;;;10.70;6.95;;;;;;;1.16;100.00;101387.13;5032743;28;20033;-67
2021/12/18 04:08:24;;;;;;;6.25;5.75;;;;;;;1.15;100.00;101391.53;5032836;28;20483;-67
2021/12/18 04:10:50;;;;;;;9.73;6.97;;;;;;;1.16;100.00;101395.81;5032274;28;20041;-68
2021/12/18 04:13:16;;;;;;;10.05;6.38;;;;;;;1.20;100.00;101404.31;5049059;28;20611;-69
2021/12/18 04:15:41;;;;;;;8.45;6.40;;;;;;;1.17;100.00;101402.72;5038325;28;20044;-68
2021/12/18 04:18:07;;;;;;;9.40;6.38;;;;;;;1.21;100.00;101412.06;5035096;28;20045;-69
2021/12/18 04:20:33;;;;;;;6.97;6.38;;;;;;;1.22;100.00;101415.53;5037328;28;20029;-68
2021/12/18 04:22:58;;;;;;;8.10;6.72;;;;;;;1.22;100.00;101416.34;5044968;28;20112;-68
2021/12/18 04:25:24;;;;;;;8.40;6.65;;;;;;;1.24;100.00;101419.72;5049067;28;20029;-68
2021/12/18 04:27:49;;;;;;;8.20;6.50;;;;;;;1.22;100.00;101421.59;5050895;28;20056;-69
2021/12/18 04:30:15;;;;;;;11.88;7.00;;;;;;;1.27;100.00;101430.00;5039421;28;20109;-68
2021/12/18 04:32:41;;;;;;;8.73;6.70;;;;;;;1.28;100.00;101421.22;5043199;28;20025;-69
2021/12/18 04:35:07;;;;;;;7.72;6.13;;;;;;;1.32;100.00;101430.56;5035491;28;20029;-68
2021/12/18 04:37:32;;;;;;;6.60;5.85;;;;;;;1.37;100.00;101428.50;5048979;28;20033;-67
2021/12/18 04:39:58;;;;;;;6.68;6.07;;;;;;;1.39;100.00;101431.84;5038285;28;20033;-67
2021/12/18 04:42:23;;;;;;;7.15;6.55;;;;;;;1.37;100.00;101436.34;5047653;28;20029;-67
2021/12/18 04:44:49;;;;;;;7.32;6.60;;;;;;;1.42;100.00;101438.69;5033957;28;20041;-67
2021/12/18 04:47:15;;;;;;;7.13;5.95;;;;;;;1.44;100.00;101441.19;5038628;28;20030;-67
2021/12/18 04:49:40;;;;;;;8.40;5.60;;;;;;;1.41;100.00;101441.41;5046632;28;20029;-68
2021/12/18 04:52:06;;;;;;;7.53;5.97;;;;;;;1.43;100.00;101449.97;5049897;28;20059;-67
2021/12/18 04:54:32;;;;;;;7.30;6.60;;;;;;;1.43;100.00;101442.97;5035792;28;20022;-67
2021/12/18 04:56:58;;;;;;;9.68;7.05;;;;;;;1.43;100.00;101447.38;5035341;28;20021;-67
2021/12/18 04:59:23;;;;;;;6.75;5.82;;;;;;;1.44;100.00;101452.50;5046376;28;20397;-69
2021/12/18 05:01:51;;;;;;;6.65;5.82;;;;;;;1.43;100.00;101447.38;5034745;28;20051;-68
2021/12/18 05:04:16;;;;;;;6.10;5.50;;;;;;;1.39;100.00;101454.53;5041789;28;20029;-70
2021/12/18 05:06:45;;;;;;;9.70;6.25;;;;;;;1.43;100.00;101457.81;5048844;28;20107;-69
2021/12/18 05:09:14;;;;;;;6.40;5.90;;;;;;;1.42;100.00;101454.38;5034472;28;20094;-67
2021/12/18 05:11:41;;;;;;;10.10;5.97;;;;;;;1.43;100.00;101456.03;5045846;28;20025;-66
2021/12/18 05:14:07;;;;;;;9.73;6.28;;;;;;;1.41;100.00;101464.94;5035074;28;20029;-69
2021/12/18 05:16:33;;;;;;;8.32;6.43;;;;;;;1.44;100.00;101470.78;5049216;28;20072;-68
2021/12/18 05:18:58;;;;;;;6.35;5.63;;;;;;;1.43;100.00;101476.97;5052501;28;20025;-70
2021/12/18 05:21:24;;;;;;;7.45;5.80;;;;;;;1.44;100.00;101480.41;5048107;28;20482;-69
2021/12/18 05:23:49;;;;;;;8.52;6.00;;;;;;;1.24;100.00;101474.59;5048235;28;20064;-67
2021/12/18 05:26:15;;;;;;;6.45;5.93;;;;;;;1.30;100.00;101486.47;5039883;28;20033;-68
2021/12/18 05:28:41;;;;;;;6.28;5.50;;;;;;;1.18;100.00;101493.28;5039870;28;20486;-68
2021/12/18 05:31:09;;;;;;;6.18;4.40;;;;;;;1.15;100.00;101496.06;5048099;28;20029;-68
2021/12/18 05:33:35;;;;;;;5.22;4.93;;;;;;;1.06;100.00;101489.59;5039208;28;20053;-70
2021/12/18 05:36:00;;;;;;;4.72;4.40;;;;;;;0.87;100.00;101478.53;5052732;28;20105;-68
2021/12/18 05:38:26;;;;;;;5.57;5.18;;;;;;;1.05;100.00;101502.75;5057396;28;20470;-69
2021/12/18 05:40:51;;;;;;;5.10;4.80;;;;;;;1.11;100.00;101510.25;5050014;28;20029;-70
2021/12/18 05:43:16;;;;;;;6.75;5.40;;;;;;;1.04;100.00;101506.31;5045702;28;20022;-70
2021/12/18 05:45:42;;;;;;;6.13;5.57;;;;;;;0.97;100.00;101505.81;5039817;28;20048;-68
2021/12/18 05:48:07;;;;;;;6.47;5.82;;;;;;;0.97;100.00;101516.28;5037120;28;20368;-68
2021/12/18 05:50:33;;;;;;;7.10;5.10;;;;;;;0.96;100.00;101517.22;5040332;28;20467;-69
2021/12/18 05:53:00;;;;;;;5.30;4.90;;;;;;;1.01;100.00;101528.22;5043497;28;20025;-69
2021/12/18 05:55:28;;;;;;;5.78;5.20;;;;;;;0.96;100.00;101534.66;5035923;28;20026;-69
2021/12/18 05:57:53;;;;;;;4.97;4.68;;;;;;;1.02;100.00;101524.66;5035366;28;20040;-70
2021/12/18 06:00:19;;;;;;;5.80;5.28;;;;;;;0.91;100.00;101536.69;5043100;28;20096;-67
2021/12/18 06:02:46;;;;;;;6.70;6.10;;;;;;;0.98;100.00;101541.47;5045111;28;20037;-69
2021/12/18 06:05:11;;;;;;;4.85;4.55;;;;;;;0.83;100.00;101542.34;5045579;28;20041;-68
2021/12/18 06:10:09;;;;;;;5.68;5.18;;;;;;;0.91;100.00;101561.03;5041971;28;20079;-69
2021/12/18 06:12:34;;;;;;;5.07;4.70;;;;;;;0.97;100.00;101547.63;5050830;28;20443;-70
2021/12/18 06:15:00;;;;;;;5.70;4.85;;;;;;;1.01;100.00;101561.34;5047205;28;20371;-68
2021/12/18 06:17:25;;;;;;;5.82;5.43;;;;;;;0.93;100.00;101566.16;5045497;28;20044;-68
2021/12/18 06:19:50;;;;;;;6.32;5.82;;;;;;;0.88;100.00;101573.41;5043417;28;20028;-69
2021/12/18 06:22:16;;;;;;;5.75;5.18;;;;;;;0.85;100.00;101577.03;5050605;28;20029;-69
2021/12/18 06:24:41;;;;;;;6.32;5.80;;;;;;;0.78;100.00;101566.09;5043106;28;20360;-69
2021/12/18 06:27:07;;;;;;;6.63;5.95;;;;;;;0.76;100.00;101570.56;5034139;28;20397;-69
2021/12/18 06:29:34;;;;;;;6.60;5.95;;;;;;;0.81;100.00;101571.16;5038235;28;20037;-68
2021/12/18 06:32:00;;;;;;;5.47;5.07;;;;;;;0.81;100.00;101580.78;5036075;28;20095;-70
2021/12/18 06:34:25;;;;;;;6.70;6.05;;;;;;;0.82;100.00;101580.69;5041393;28;20425;-67
2021/12/18 06:36:51;;;;;;;6.00;5.53;;;;;;;0.80;100.00;101579.91;5050241;28;20033;-66
2021/12/18 06:39:16;;;;;;;5.85;5.45;;;;;;;0.87;100.00;101584.78;5034295;28;20026;-68
2021/12/18 06:41:42;;;;;;;6.78;6.15;;;;;;;0.81;100.00;101586.84;5053038;28;20028;-70
2021/12/18 06:44:08;;;;;;;7.43;6.65;;;;;;;0.91;100.00;101600.22;5049350;28;20021;-68
2021/12/18 06:46:33;;;;;;;8.70;6.38;;;;;;;0.92;100.00;101603.66;5040217;28;20103;-66
2021/12/18 06:48:59;;;;;;;11.38;7.75;;;;;;;0.82;100.00;101606.81;5042275;28;20108;-68
2021/12/18 06:51:24;;;;;;;10.20;7.80;;;;;;;0.78;100.00;101613.13;5042787;28;20423;-68
2021/12/18 06:53:50;;;;;;;9.38;6.78;;;;;;;0.91;100.00;101607.22;5039762;28;20081;-69
2021/12/18 06:56:15;;;;;;;11.68;7.47;;;;;;;0.94;100.00;101615.72;5042706;28;20030;-69
2021/12/18 06:58:40;;;;;;;12.07;7.72;;;;;;;0.93;100.00;101619.25;5041780;28;20093;-70
2021/12/18 07:01:06;;;;;;;8.65;7.22;;;;;;;0.93;100.00;101618.41;5043015;28;20500;-69
2021/12/18 07:03:33;;;;;;;8.30;7.20;;;;;;;1.06;100.00;101627.25;5045583;28;20024;-69
2021/12/18 07:05:59;;;;;;;10.40;8.13;;;;;;;1.08;100.00;101631.44;5043851;28;20033;-68
2021/12/18 07:08:24;;;;;;;8.82;6.57;;;;;;;1.10;100.00;101636.59;5033514;28;20028;-70
2021/12/18 07:10:50;;;;;;;10.38;7.35;;;;;;;1.16;100.00;101630.19;5033723;28;20532;-69
2021/12/18 07:13:15;;;;;;;9.93;6.80;;;;;;;1.20;100.00;101632.53;5039022;28;20090;-68
2021/12/18 07:15:42;;;;;;;9.85;7.88;;;;;;;1.28;100.00;101634.72;5041840;28;20295;-68
2021/12/18 07:18:08;;;;;;;7.65;6.90;;;;;;;1.27;100.00;101639.09;5032373;28;20041;-69
2021/12/18 07:20:34;;;;;;;12.02;8.10;;;;;;;1.23;100.00;101631.50;5043856;28;20022;-67
2021/12/18 07:23:00;;;;;;;13.02;7.45;;;;;;;1.26;100.00;101634.81;5034774;28;20482;-69
2021/12/18 07:25:27;;;;;;;14.88;7.65;;;;;;;1.31;100.00;101632.75;5033183;28;20085;-69
2021/12/18 07:27:53;;;;;;;10.02;7.15;;;;;;;1.36;100.00;101637.72;5049170;28;20098;-68
2021/12/18 07:30:18;;;;;;;12.52;7.47;;;;;;;1.37;100.00;101639.41;5028107;28;20471;-68
2021/12/18 07:32:44;;;;;;;7.40;6.78;;;;;;;1.40;100.00;101647.09;5027800;28;20052;-68
2021/12/18 07:35:10;;;;;;;10.23;7.50;;;;;;;1.41;100.00;101640.94;5034490;28;20021;-68
2021/12/18 07:37:36;;;;;;;9.45;7.55;;;;;;;1.32;100.00;101641.44;5049936;28;20035;-68
2021/12/18 07:40:04;;;;;;;14.90;8.13;;;;;;;1.49;100.00;101645.72;5035597;28;20021;-71
2021/12/18 07:42:29;;;;;;;11.52;7.22;;;;;;;1.45;100.00;101638.97;5034885;28;20477;-68
2021/12/18 07:44:57;;;;;;;7.60;6.80;;;;;;;1.45;100.00;101638.97;5039317;28;20033;-68
2021/12/18 07:47:22;;;;;;;9.00;7.15;;;;;;;1.55;100.00;101634.91;5043315;28;20033;-68
2021/12/18 07:49:48;;;;;;;9.68;7.88;;;;;;;1.50;100.00;101631.72;5039851;28;20025;-68
2021/12/18 07:52:13;;;;;;;11.50;8.65;;;;;;;1.71;100.00;101638.31;5032538;28;20029;-70
2021/12/18 07:54:39;;;;;;;10.32;7.60;;;;;;;1.60;100.00;101646.75;5050161;28;20028;-67
2021/12/18 07:57:04;;;;;;;14.73;9.18;;;;;;;1.57;100.00;101646.94;5041987;28;20029;-68
2021/12/18 07:59:30;;;;;;;11.90;8.82;;;;;;;1.58;100.00;101648.63;5030796;28;20030;-68
2021/12/18 08:01:55;;;;;;;21.83;8.63;;;;;;;1.65;100.00;101646.50;5036705;28;20033;-68
2021/12/18 08:04:21;;;;;;;10.43;7.40;;;;;;;1.63;100.00;101645.75;5037806;28;20029;-66
2021/12/18 08:06:46;;;;;;;23.10;8.73;;;;;;;1.64;100.00;101652.66;5049135;28;20029;-69
2021/12/18 08:09:12;;;;;;;20.38;7.18;;;;;;;1.69;100.00;101653.25;5035644;28;20126;-69
2021/12/18 08:11:37;;;;;;;8.38;7.45;;;;;;;1.61;100.00;101652.81;5034737;28;20074;-67
2021/12/18 08:14:03;;;;;;;11.13;6.57;;;;;;;1.72;100.00;101660.91;5045500;28;20390;-70
2021/12/18 08:16:28;;;;;;;9.65;8.00;;;;;;;1.54;100.00;101661.97;5045661;28;20429;-68
2021/12/18 08:18:54;;;;;;;9.30;7.85;;;;;;;1.49;100.00;101657.00;5042580;28;20033;-66
2021/12/18 08:21:19;;;;;;;9.38;7.93;;;;;;;1.58;100.00;101668.72;5049734;28;20376;-74
2021/12/18 08:23:45;;;;;;;12.25;9.35;;;;;;;1.65;100.00;101670.88;5043747;28;20029;-69
2021/12/18 08:26:10;;;;;;;12.80;7.80;;;;;;;1.77;100.00;101669.34;5036656;28;20032;-67
2021/12/18 08:28:35;;;;;;;8.43;7.43;;;;;;;1.78;100.00;101664.94;5050553;28;20032;-73
2021/12/18 08:31:02;;;;;;;8.85;7.82;;;;;;;1.65;100.00;101665.66;5042113;28;20473;-71
2021/12/18 08:33:27;;;;;;;9.38;7.07;;;;;;;1.73;100.00;101677.44;5050413;28;20037;-70
2021/12/18 08:35:53;;;;;;;7.90;6.90;;;;;;;1.86;100.00;101673.19;5034159;28;20220;-70
2021/12/18 08:38:18;;;;;;;9.57;6.82;;;;;;;1.75;100.00;101686.88;5034647;28;20037;-69
2021/12/18 08:40:45;;;;;;;8.63;7.60;;;;;;;1.80;100.00;101681.38;5036657;28;20087;-69
2021/12/18 08:43:11;;;;;;;9.18;7.03;;;;;;;1.86;100.00;101673.19;5042724;28;20025;-69
2021/12/18 08:45:36;;;;;;;6.05;5.32;;;;;;;1.81;100.00;101683.06;5051090;28;20032;-68
2021/12/18 08:48:02;;;;;;;7.07;6.57;;;;;;;1.80;100.00;101679.59;5036947;28;20032;-69
2021/12/18 08:50:28;;;;;;;6.40;5.80;;;;;;;1.87;100.00;101687.94;5037779;28;20033;-68
2021/12/18 08:52:53;;;;;;;12.32;6.32;;;;;;;1.97;100.00;101680.38;5046401;28;20345;-72
2021/12/18 08:55:21;;;;;;;6.47;5.70;;;;;;;2.02;100.00;101681.81;5037127;28;20029;-69
2021/12/18 08:57:47;;;;;;;5.97;5.47;;;;;;;2.01;100.00;101677.50;5040693;28;20041;-70
2021/12/18 09:00:16;;;;;;;6.57;5.97;;;;;;;2.07;100.00;101677.16;5044695;28;20487;-71
2021/12/18 09:02:44;;;;;;;9.32;6.60;;;;;;;2.06;100.00;101677.25;5046371;28;20045;-69
2021/12/18 09:05:10;;;;;;;7.93;6.28;;;;;;;1.83;100.00;101675.97;5045882;28;20045;-69
2021/12/18 09:07:36;;;;;;;11.20;7.43;;;;;;;1.87;100.00;101680.94;5041142;28;20034;-67
2021/12/18 09:10:04;;;;;;;10.85;6.60;;;;;;;1.95;100.00;101675.25;5045317;28;20032;-69
2021/12/18 09:12:29;;;;;;;6.47;6.03;;;;;;;1.87;100.00;101680.94;5046061;28;20453;-68
2021/12/18 09:14:55;;;;;;;6.75;6.15;;;;;;;1.72;100.00;101687.06;5045306;28;20028;-68
2021/12/18 09:17:20;;;;;;;6.70;6.05;;;;;;;1.83;100.00;101697.72;5055242;28;20045;-68
2021/12/18 09:19:46;;;;;;;7.25;6.57;;;;;;;1.87;100.00;101701.03;5047453;28;20022;-68
2021/12/18 09:22:12;;;;;;;6.40;5.68;;;;;;;1.72;100.00;101696.69;5043115;28;20026;-69
2021/12/18 09:24:38;;;;;;;10.13;6.25;;;;;;;1.79;100.00;101698.03;5041405;28;20104;-68
2021/12/18 09:27:05;;;;;;;6.68;6.07;;;;;;;1.72;100.00;101694.06;5047031;28;20060;-70
2021/12/18 09:29:31;;;;;;;6.13;5.53;;;;;;;1.69;100.00;101686.38;5044166;28;20171;-69
2021/12/18 09:31:56;;;;;;;6.57;6.03;;;;;;;1.91;100.00;101697.31;5037539;28;20149;-70
2021/12/18 09:34:22;;;;;;;8.85;6.85;;;;;;;1.94;100.00;101694.50;5034525;28;20029;-69
2021/12/18 09:36:48;;;;;;;7.35;6.60;;;;;;;2.01;100.00;101692.38;5040228;28;20029;-71
2021/12/18 09:39:14;;;;;;;6.68;5.72;;;;;;;2.13;100.00;101691.63;5044318;28;20110;-71
2021/12/18 09:41:40;;;;;;;9.02;7.57;;;;;;;2.12;100.00;101703.03;5046756;28;20032;-69
2021/12/18 09:44:06;;;;;;;8.45;6.88;;;;;;;1.99;100.00;101699.47;5038126;28;20021;-68
2021/12/18 09:46:32;;;;;;;8.00;6.45;;;;;;;2.10;100.00;101705.75;5034811;28;20124;-71
2021/12/18 09:48:58;;;;;;;10.25;7.15;;;;;;;2.22;100.00;101710.25;5036975;28;20390;-69
2021/12/18 09:51:27;;;;;;;10.02;7.32;;;;;;;2.21;100.00;101705.13;5041904;28;20032;-70
2021/12/18 09:53:55;;;;;;;9.23;7.03;;;;;;;2.31;100.00;101708.00;5048021;28;20029;-68
2021/12/18 09:56:22;;;;;;;7.38;6.32;;;;;;;2.29;100.00;101702.88;5039481;28;20379;-68
2021/12/18 09:58:47;;;;;;;9.95;6.72;;;;;;;2.32;100.00;101705.28;5039423;28;20064;-69
2021/12/18 10:01:13;;;;;;;6.88;6.22;;;;;;;2.22;100.00;101701.56;5036325;28;20033;-66
2021/12/18 10:03:43;;;;;;;10.93;6.90;;;;;;;2.21;100.00;101705.13;5035089;28;20088;-74
2021/12/18 10:06:47;;;;;;;7.75;6.88;;;;;;;2.21;100.00;101705.13;5040450;28;20517;-67
2021/12/18 10:09:28;;;;;;;7.45;6.75;;;;;;;2.27;100.00;101699.47;5034775;28;20032;-68
2021/12/18 10:11:57;;;;;;;7.60;6.85;;;;;;;2.14;100.00;101688.09;5045710;28;20048;-68
2021/12/18 10:14:53;;;;;;;11.57;7.72;;;;;;;1.96;100.00;101683.94;5042621;28;20060;-69
2021/12/18 10:17:27;;;;;;;7.10;6.40;;;;;;;1.91;100.00;101686.84;5044932;28;20475;-70
2021/12/18 10:20:09;;;;;;;6.43;5.93;;;;;;;1.85;100.00;101681.97;5040442;28;20037;-69
2021/12/18 10:22:44;;;;;;;7.15;6.55;;;;;;;1.97;100.00;101675.16;5039116;28;20121;-67
2021/12/18 10:25:10;;;;;;;9.20;5.88;;;;;;;2.03;100.00;101677.41;5042402;28;20029;-70
2021/12/18 10:27:37;;;;;;;7.40;6.47;;;;;;;2.05;100.00;101679.00;5033415;28;20382;-67
2021/12/18 10:30:19;;;;;;;6.60;6.10;;;;;;;2.06;100.00;101678.09;5039857;28;20025;-70
2021/12/18 10:33:13;;;;;;;14.45;5.28;;;;;;;2.00;100.00;101672.38;5037248;28;20483;-72
2021/12/18 10:35:59;;;;;;;7.43;6.72;;;;;;;2.00;100.00;101665.34;5042746;28;20111;-72
2021/12/18 10:38:45;;;;;;;11.07;7.32;;;;;;;1.97;100.00;101664.69;5027263;28;20087;-71
2021/12/18 10:41:25;;;;;;;6.50;5.90;;;;;;;1.92;100.00;101660.59;5041307;28;20025;-73
2021/12/18 10:44:07;;;;;;;8.30;7.32;;;;;;;1.98;100.00;101671.59;5036108;28;20055;-70
2021/12/18 10:46:35;;;;;;;9.80;7.43;;;;;;;1.92;100.00;101663.19;5038422;28;20032;-73
2021/12/18 10:49:15;;;;;;;20.67;7.97;;;;;;;1.91;100.00;101664.13;5045045;28;20124;-70
2021/12/18 10:51:42;;;;;;;15.60;9.48;;;;;;;1.98;100.00;101661.97;5042136;28;20544;-70
2021/12/18 10:54:18;;;;;;;11.98;8.25;;;;;;;1.89;100.00;101667.75;5042078;28;20079;-68
2021/12/18 10:56:47;;;;;;;11.52;8.32;;;;;;;1.93;100.00;101669.28;5042039;28;20025;-69
2021/12/18 10:59:24;;;;;;;14.57;7.28;;;;;;;1.85;100.00;101668.88;5049916;28;20024;-70
2021/12/18 11:01:51;;;;;;;14.05;8.57;;;;;;;1.89;100.00;101663.34;5050549;28;20025;-69
2021/12/18 11:04:29;;;;;;;17.55;7.72;;;;;;;1.96;100.00;101663.00;5060127;28;20032;-70
2021/12/18 11:06:55;;;;;;;9.25;8.27;;;;;;;1.87;100.00;101664.41;5057914;28;20031;-69
2021/12/18 11:09:31;;;;;;;10.93;8.77;;;;;;;2.01;100.00;101667.03;5053035;28;20394;-70
2021/12/18 11:14:30;;;;;;;10.98;6.85;;;;;;;2.21;100.00;101663.22;5043795;28;20032;-69
2021/12/18 11:17:00;;;;;;;9.27;7.20;;;;;;;2.24;100.00;101651.72;5038733;28;20037;-71
2021/12/18 11:19:28;;;;;;;8.88;7.07;;;;;;;2.15;100.00;101664.44;5047919;28;20052;-70
2021/12/18 11:21:57;;;;;;;9.05;7.07;;;;;;;2.23;100.00;101663.97;5043648;28;20028;-69
2021/12/18 11:24:31;;;;;;;8.82;7.32;;;;;;;2.05;100.00;101655.44;5053331;28;20047;-69
2021/12/18 11:27:12;;;;;;;12.30;7.85;;;;;;;2.19;100.00;101651.97;5047611;28;20438;-69
2021/12/18 11:29:51;;;;;;;15.15;9.82;;;;;;;2.01;100.00;101656.56;5039802;28;20029;-71
2021/12/18 11:32:31;;;;;;;12.15;9.55;;;;;;;2.20;100.00;101653.66;5038539;28;20024;-70
2021/12/18 11:35:01;;;;;;;10.23;7.45;;;;;;;2.12;100.00;101653.28;5036260;28;20032;-71
2021/12/18 11:37:33;;;;;;;9.35;6.28;;;;;;;2.20;100.00;101653.66;5026383;28;20045;-70
2021/12/18 11:40:04;;;;;;;8.13;7.00;;;;;;;2.32;100.00;101657.31;5043234;28;20033;-74
2021/12/18 11:42:31;;;;;;;9.98;7.55;;;;;;;2.20;100.00;101665.00;5042002;28;20407;-71
2021/12/18 11:44:59;;;;;;;10.32;7.07;;;;;;;2.26;100.00;101645.44;5038789;28;20060;-71
2021/12/18 11:47:29;;;;;;;10.68;6.72;;;;;;;2.36;100.00;101649.19;5042346;28;20492;-71
2021/12/18 11:50:17;;;;;;;9.18;8.27;;;;;;;2.22;100.00;101633.50;5040170;28;20025;-69
2021/12/18 11:52:53;;;;;;;10.43;7.05;;;;;;;2.35;100.00;101639.66;5043545;28;20036;-72
2021/12/18 11:55:19;;;;;;;11.02;6.80;;;;;;;2.42;100.00;101638.34;5039093;28;20461;-68
2021/12/18 11:57:48;;;;;;;7.80;5.70;;;;;;;2.32;100.00;101637.22;5040885;28;20039;-70
2021/12/18 12:00:23;;;;;;;9.93;5.88;;;;;;;2.27;100.00;101641.03;5044550;28;20447;-72
2021/12/18 12:02:53;;;;;;;14.10;6.47;;;;;;;2.58;100.00;101640.84;5033962;28;20471;-71
2021/12/18 12:05:31;;;;;;;6.25;5.70;;;;;;;2.69;100.00;101637.56;5037429;28;20048;-71
2021/12/18 12:08:18;;;;;;;5.88;5.30;;;;;;;2.37;100.00;101635.16;5046034;28;20032;-74
2021/12/18 12:11:15;;;;;;;5.72;5.32;;;;;;;2.26;100.00;101639.38;5034404;28;20037;-72